Flugplatz Hodenhagen

Für EDVH sind keine METAR/TAF Berichte vorhanden.
Es werden die Flugwettermeldungen vom Flugplatz Celle Airport in 33 km Entfernung angezeigt.

Bericht für ETHC

vom 25.01. um 22:20 UTC

Wind 2 kt aus 220°

Sichtweite 3000 m

Code: FZDZ

feuchter Dunst

aufgebrochene Bewölkung in 400 ft

Temperatur 0.0°C

Taupunkt -1.0°C

Luftfeuchtigkeit 93%

Luftdruck 1020 hPa

ETHC 252220Z 22002KT 3000 -FZDZ BR BKN004 M00/M01 Q1020 YLO
Keine Prognose (TAF) verfügbar.
Impressum